createdAt,value
2023-05-25T00:00:14.120Z,17.96
2023-05-25T00:03:03.994Z,18.02
2023-05-25T00:05:54.063Z,18.10
2023-05-25T00:08:42.995Z,18.13
2023-05-25T00:11:31.467Z,18.20
2023-05-25T00:14:20.181Z,18.22
2023-05-25T00:17:10.319Z,18.29
2023-05-25T00:20:02.978Z,18.35
2023-05-25T00:22:52.619Z,18.36
2023-05-25T00:25:41.952Z,18.38
2023-05-25T00:28:31.160Z,18.38
2023-05-25T00:31:19.928Z,18.46
2023-05-25T00:34:08.438Z,18.43
2023-05-25T00:36:56.948Z,18.42
2023-05-25T00:39:45.614Z,18.42
2023-05-25T00:42:34.241Z,18.44
2023-05-25T00:45:22.974Z,18.39
2023-05-25T00:48:11.577Z,18.44
2023-05-25T00:51:00.179Z,18.46
2023-05-25T00:53:48.892Z,18.52
2023-05-25T00:56:38.874Z,18.55
2023-05-25T00:59:35.942Z,18.50
2023-05-25T01:02:26.903Z,18.46
2023-05-25T01:05:15.906Z,18.43
2023-05-25T01:08:04.509Z,18.46
2023-05-25T01:10:53.390Z,18.53
2023-05-25T01:13:42.897Z,18.52
2023-05-25T01:16:31.487Z,18.55
2023-05-25T01:19:20.265Z,18.61
2023-05-25T01:22:24.304Z,18.63
2023-05-25T01:25:15.255Z,18.57
2023-05-25T01:28:16.029Z,18.56
2023-05-25T01:31:04.956Z,18.57
2023-05-25T01:33:53.728Z,18.58
2023-05-25T01:36:42.273Z,18.56
2023-05-25T01:39:31.329Z,18.62
2023-05-25T01:42:20.044Z,18.57
2023-05-25T01:45:09.712Z,18.61
2023-05-25T01:48:13.647Z,18.60
2023-05-25T01:51:09.680Z,18.60
2023-05-25T01:54:03.655Z,18.70
2023-05-25T01:56:53.688Z,18.75
2023-05-25T01:59:43.030Z,18.65
2023-05-25T02:02:31.726Z,18.66
2023-05-25T02:05:20.322Z,18.63
2023-05-25T02:08:09.064Z,18.66
2023-05-25T02:10:57.588Z,18.79
2023-05-25T02:13:46.479Z,18.77
2023-05-25T02:16:35.301Z,18.80
2023-05-25T02:19:24.159Z,18.84
2023-05-25T02:22:13.223Z,18.90
2023-05-25T02:25:03.347Z,18.98
2023-05-25T02:27:51.917Z,19.08
2023-05-25T02:30:40.756Z,19.06
2023-05-25T02:33:29.192Z,19.12
2023-05-25T02:36:18.445Z,19.19
2023-05-25T02:39:06.974Z,19.12
2023-05-25T02:41:55.702Z,19.15
2023-05-25T02:44:48.417Z,19.10
2023-05-25T02:47:37.065Z,19.07
2023-05-25T02:50:26.047Z,19.10
2023-05-25T02:53:16.581Z,19.09
2023-05-25T02:56:05.770Z,19.18
2023-05-25T02:58:54.957Z,19.20
2023-05-25T03:01:51.474Z,19.29
2023-05-25T03:04:42.136Z,19.35
2023-05-25T03:07:31.368Z,19.31
2023-05-25T03:10:20.163Z,19.29
2023-05-25T03:13:08.759Z,19.35
2023-05-25T03:15:59.641Z,19.41
2023-05-25T03:18:48.401Z,19.46
2023-05-25T03:21:37.850Z,19.52
2023-05-25T03:24:27.143Z,19.60
2023-05-25T03:27:19.076Z,19.70
2023-05-25T03:30:08.350Z,19.69
2023-05-25T03:32:56.987Z,19.68
2023-05-25T03:35:47.221Z,19.79
2023-05-25T03:38:37.120Z,19.87
2023-05-25T03:41:25.801Z,20.00
2023-05-25T03:44:14.428Z,20.09
2023-05-25T03:47:03.263Z,20.18
2023-05-25T03:49:52.254Z,20.27
2023-05-25T03:52:40.849Z,20.28
2023-05-25T03:55:30.998Z,20.33
2023-05-25T03:58:19.557Z,20.39
2023-05-25T04:01:09.936Z,20.48
2023-05-25T04:03:58.155Z,20.61
2023-05-25T04:06:49.243Z,20.73
2023-05-25T04:09:37.835Z,20.86
2023-05-25T04:12:30.008Z,20.95
2023-05-25T04:15:18.636Z,21.01
2023-05-25T04:18:19.453Z,21.09
2023-05-25T04:21:09.694Z,21.20
2023-05-25T04:23:58.334Z,21.36
2023-05-25T04:26:49.345Z,21.50
2023-05-25T04:29:38.500Z,21.62
2023-05-25T04:32:50.678Z,21.69
2023-05-25T04:35:58.761Z,21.72
2023-05-25T04:38:48.166Z,21.76
2023-05-25T04:41:37.991Z,21.82
2023-05-25T04:44:31.039Z,21.90
2023-05-25T04:47:19.892Z,22.07
2023-05-25T04:50:10.375Z,22.22
2023-05-25T04:52:59.022Z,22.29
2023-05-25T04:55:47.683Z,22.44
2023-05-25T04:58:36.500Z,22.58
2023-05-25T05:01:26.573Z,22.71
2023-05-25T05:04:18.289Z,22.82
2023-05-25T05:07:08.420Z,22.92
2023-05-25T05:09:57.252Z,23.09
2023-05-25T05:12:46.673Z,23.25
2023-05-25T05:15:35.357Z,23.38
2023-05-25T05:18:23.915Z,23.33
2023-05-25T05:22:26.656Z,23.38
2023-05-25T05:26:26.074Z,23.47
2023-05-25T05:30:28.754Z,23.47
2023-05-25T05:34:27.984Z,23.50
2023-05-25T05:38:31.155Z,23.46
2023-05-25T05:42:29.954Z,23.44
2023-05-25T05:46:32.191Z,23.63
2023-05-25T05:50:32.223Z,23.88
2023-05-25T05:54:35.203Z,24.04
2023-05-25T05:58:39.139Z,24.21
2023-05-25T06:02:42.076Z,24.37
2023-05-25T06:06:41.166Z,24.60
2023-05-25T06:10:43.745Z,24.73
2023-05-25T06:14:43.280Z,24.90
2023-05-25T06:18:45.694Z,25.08
2023-05-25T06:22:44.215Z,25.32
2023-05-25T06:26:46.150Z,25.58
2023-05-25T06:30:45.077Z,25.70
2023-05-25T06:34:47.278Z,25.76
2023-05-25T06:38:46.205Z,25.92
2023-05-25T06:42:48.866Z,25.95
2023-05-25T06:47:20.122Z,25.98
2023-05-25T06:51:22.719Z,26.07
2023-05-25T06:55:21.440Z,26.28
2023-05-25T06:59:23.631Z,26.52
2023-05-25T07:03:22.256Z,26.81
2023-05-25T07:07:23.651Z,27.03
2023-05-25T07:11:22.176Z,27.21
2023-05-25T07:15:24.309Z,27.37
2023-05-25T07:19:23.109Z,27.45
2023-05-25T07:23:25.301Z,27.51
2023-05-25T07:27:23.467Z,27.60
2023-05-25T07:31:24.052Z,27.71
2023-05-25T07:35:22.803Z,27.73
2023-05-25T07:39:22.964Z,27.82
2023-05-25T07:43:20.558Z,27.88
2023-05-25T07:47:20.890Z,27.87
2023-05-25T07:51:18.596Z,27.80
2023-05-25T07:55:18.858Z,27.89
2023-05-25T07:59:16.657Z,28.04
2023-05-25T08:03:17.205Z,28.22
2023-05-25T08:07:15.458Z,28.45
2023-05-25T08:11:15.776Z,28.69
2023-05-25T08:15:13.686Z,28.77
2023-05-25T08:19:13.938Z,28.90
2023-05-25T08:23:11.417Z,29.12
2023-05-25T08:27:11.976Z,29.20
2023-05-25T08:31:09.623Z,29.37
2023-05-25T08:35:09.884Z,29.40
2023-05-25T08:39:07.549Z,29.42
2023-05-25T08:43:07.566Z,29.75
2023-05-25T08:47:05.552Z,30.14
2023-05-25T08:51:06.807Z,30.39
2023-05-25T08:55:06.643Z,30.66
2023-05-25T08:59:07.177Z,30.78
2023-05-25T09:03:05.929Z,30.84
2023-05-25T09:07:10.886Z,30.71
2023-05-25T09:11:10.029Z,30.57
2023-05-25T09:15:11.083Z,30.47
2023-05-25T09:19:08.785Z,30.70
2023-05-25T09:23:09.010Z,30.93
2023-05-25T09:27:06.682Z,31.26
2023-05-25T09:31:07.001Z,31.64
2023-05-25T09:35:04.800Z,31.65
2023-05-25T09:39:05.172Z,31.69
2023-05-25T09:43:03.829Z,31.89
2023-05-25T09:47:04.152Z,31.80
2023-05-25T09:51:02.762Z,31.63
2023-05-25T09:55:03.246Z,31.43
2023-05-25T09:59:01.702Z,31.26
2023-05-25T10:03:02.290Z,31.45
2023-05-25T10:07:00.796Z,31.68
2023-05-25T10:11:01.069Z,31.90
2023-05-25T10:14:58.998Z,32.05
2023-05-25T10:18:59.139Z,32.10
2023-05-25T10:22:56.929Z,31.66
2023-05-25T10:26:57.300Z,30.91
2023-05-25T10:30:58.088Z,30.27
2023-05-25T10:34:55.658Z,29.96
2023-05-25T10:38:56.126Z,29.71
2023-05-25T10:42:53.945Z,29.49
2023-05-25T10:46:53.637Z,29.31
2023-05-25T10:50:51.981Z,29.09
2023-05-25T10:54:52.217Z,28.88
2023-05-25T10:58:49.832Z,28.65
2023-05-25T11:02:50.083Z,28.44
2023-05-25T11:06:35.778Z,28.24
2023-05-25T11:10:21.209Z,27.97
2023-05-25T11:14:14.962Z,27.72
2023-05-25T11:18:15.219Z,27.58
2023-05-25T11:22:12.940Z,27.34
2023-05-25T11:26:13.046Z,27.10
2023-05-25T11:30:11.061Z,26.84
2023-05-25T11:34:11.206Z,26.54
2023-05-25T11:38:09.002Z,26.22
2023-05-25T11:42:08.669Z,26.08
2023-05-25T11:46:07.038Z,26.02
2023-05-25T11:49:52.727Z,26.00
2023-05-25T11:53:38.296Z,25.87
2023-05-25T11:57:29.611Z,25.74
2023-05-25T12:01:23.377Z,25.60
2023-05-25T12:05:23.241Z,25.73
2023-05-25T12:09:20.895Z,25.93
2023-05-25T12:13:21.361Z,26.25
2023-05-25T12:17:19.153Z,26.51
2023-05-25T12:21:19.547Z,26.73
2023-05-25T12:25:18.240Z,27.00
2023-05-25T12:29:15.653Z,26.98
2023-05-25T12:33:02.968Z,27.06
2023-05-25T12:36:49.519Z,27.22
2023-05-25T12:40:35.130Z,27.17
2023-05-25T12:44:20.778Z,27.01
2023-05-25T12:48:17.237Z,27.09
2023-05-25T12:52:19.284Z,27.24
2023-05-25T12:56:21.806Z,27.46
2023-05-25T13:00:23.972Z,27.61
2023-05-25T13:04:22.933Z,27.61
2023-05-25T13:08:24.982Z,27.58
2023-05-25T13:12:23.897Z,27.53
2023-05-25T13:16:25.731Z,27.46
2023-05-25T13:20:25.216Z,27.50
2023-05-25T13:24:28.352Z,27.72
2023-05-25T13:28:29.944Z,27.96
2023-05-25T13:32:19.160Z,28.30
2023-05-25T13:36:06.531Z,28.56
2023-05-25T13:39:53.907Z,28.53
2023-05-25T13:43:41.045Z,28.41
2023-05-25T13:47:28.573Z,28.18
2023-05-25T13:51:16.149Z,28.03
2023-05-25T13:55:01.730Z,28.09
2023-05-25T13:58:47.525Z,28.33
2023-05-25T14:02:32.935Z,28.76
2023-05-25T14:06:18.624Z,29.35
2023-05-25T14:10:04.617Z,29.90
2023-05-25T14:13:51.490Z,30.34
2023-05-25T14:17:36.848Z,30.25
2023-05-25T14:21:22.743Z,30.04
2023-05-25T14:25:07.963Z,29.63
2023-05-25T14:28:53.406Z,29.35
2023-05-25T14:32:39.138Z,29.03
2023-05-25T14:36:25.586Z,29.09
2023-05-25T14:40:11.370Z,29.28
2023-05-25T14:43:57.162Z,29.37
2023-05-25T14:47:55.560Z,29.42
2023-05-25T14:51:53.651Z,29.65
2023-05-25T14:55:48.182Z,29.98
2023-05-25T14:59:42.091Z,30.33
2023-05-25T15:03:39.852Z,30.51
2023-05-25T15:07:37.945Z,30.56
2023-05-25T15:11:35.876Z,30.50
2023-05-25T15:15:35.766Z,30.48
2023-05-25T15:19:31.303Z,30.55
2023-05-25T15:23:31.732Z,30.52
2023-05-25T15:27:31.448Z,30.46
2023-05-25T15:31:27.333Z,30.46
2023-05-25T15:35:14.969Z,30.47
2023-05-25T15:39:00.658Z,30.51
2023-05-25T15:42:48.545Z,30.65
2023-05-25T15:46:34.004Z,30.64
2023-05-25T15:50:19.915Z,30.41
2023-05-25T15:54:05.657Z,30.27
2023-05-25T15:58:07.677Z,30.40
2023-05-25T16:02:03.618Z,30.68
2023-05-25T16:06:03.579Z,30.66
2023-05-25T16:09:59.374Z,30.28
2023-05-25T16:13:59.003Z,29.91
2023-05-25T16:17:55.484Z,29.63
2023-05-25T16:21:55.525Z,29.32
2023-05-25T16:25:47.105Z,29.10
2023-05-25T16:29:32.879Z,29.13
2023-05-25T16:33:18.498Z,29.09
2023-05-25T16:37:11.239Z,29.12
2023-05-25T16:41:04.867Z,29.14
2023-05-25T16:44:41.716Z,29.25
2023-05-25T16:47:30.746Z,29.24
2023-05-25T16:50:19.316Z,29.13
2023-05-25T16:53:08.031Z,29.05
2023-05-25T16:55:56.684Z,28.95
2023-05-25T16:58:45.280Z,28.73
2023-05-25T17:01:33.977Z,28.63
2023-05-25T17:04:22.759Z,28.68
2023-05-25T17:07:11.391Z,28.59
2023-05-25T17:10:00.320Z,28.57
2023-05-25T17:12:50.123Z,28.63
2023-05-25T17:15:41.237Z,28.55
2023-05-25T17:18:29.970Z,28.50
2023-05-25T17:21:18.598Z,28.39
2023-05-25T17:24:07.344Z,28.37
2023-05-25T17:26:56.042Z,28.32
2023-05-25T17:29:44.718Z,28.16
2023-05-25T17:32:33.515Z,27.95
2023-05-25T17:35:22.141Z,27.69
2023-05-25T17:38:11.003Z,27.48
2023-05-25T17:40:59.630Z,27.15
2023-05-25T17:43:48.655Z,27.09
2023-05-25T17:46:37.330Z,26.85
2023-05-25T17:49:25.988Z,26.68
2023-05-25T17:52:14.568Z,26.46
2023-05-25T17:55:03.281Z,26.21
2023-05-25T17:57:51.927Z,26.31
2023-05-25T18:00:42.085Z,26.29
2023-05-25T18:03:30.897Z,26.12
2023-05-25T18:06:19.656Z,25.99
2023-05-25T18:09:08.162Z,25.89
2023-05-25T18:11:57.010Z,25.76
2023-05-25T18:14:45.545Z,25.70
2023-05-25T18:17:34.264Z,25.50
2023-05-25T18:20:23.072Z,25.29
2023-05-25T18:23:13.477Z,25.12
2023-05-25T18:26:02.088Z,24.99
2023-05-25T18:28:50.955Z,24.90
2023-05-25T18:31:45.767Z,24.85
2023-05-25T18:34:34.476Z,24.65
2023-05-25T18:37:23.496Z,24.57
2023-05-25T18:40:13.122Z,24.56
2023-05-25T18:43:01.713Z,24.49
2023-05-25T18:45:50.286Z,24.33
2023-05-25T18:48:38.854Z,24.14
2023-05-25T18:51:27.488Z,24.12
2023-05-25T18:54:16.191Z,23.96
2023-05-25T18:57:05.015Z,23.89
2023-05-25T18:59:53.801Z,23.80
2023-05-25T19:02:42.472Z,23.66
2023-05-25T19:05:30.727Z,23.51
2023-05-25T19:08:19.300Z,23.31
2023-05-25T19:11:07.880Z,23.16
2023-05-25T19:13:56.472Z,23.08
2023-05-25T19:17:43.582Z,23.11
2023-05-25T19:20:38.932Z,23.01
2023-05-25T19:23:27.461Z,22.83
2023-05-25T19:26:18.474Z,22.69
2023-05-25T19:29:07.121Z,22.70
2023-05-25T19:31:56.054Z,22.66
2023-05-25T19:34:44.690Z,22.53
2023-05-25T19:37:33.247Z,22.46
2023-05-25T19:40:22.264Z,22.49
2023-05-25T19:43:10.883Z,22.47
2023-05-25T19:46:02.214Z,22.42
2023-05-25T19:48:51.785Z,22.29
2023-05-25T19:51:40.337Z,22.35
2023-05-25T19:54:28.996Z,22.33
2023-05-25T19:57:17.534Z,22.21
2023-05-25T20:00:11.632Z,22.01
2023-05-25T20:03:06.203Z,21.94
2023-05-25T20:05:56.511Z,21.81
2023-05-25T20:08:45.126Z,21.80
2023-05-25T20:11:33.714Z,21.77
2023-05-25T20:14:22.274Z,21.78
2023-05-25T20:17:10.965Z,21.80
2023-05-25T20:20:00.945Z,21.71
2023-05-25T20:22:50.198Z,21.76
2023-05-25T20:25:38.742Z,21.74
2023-05-25T20:28:27.271Z,21.71
2023-05-25T20:31:15.912Z,21.55
2023-05-25T20:34:04.542Z,21.43
2023-05-25T20:36:53.746Z,21.42
2023-05-25T20:39:42.425Z,21.48
2023-05-25T20:42:30.911Z,21.64
2023-05-25T20:45:19.462Z,21.55
2023-05-25T20:48:08.196Z,21.48
2023-05-25T20:50:56.957Z,21.47
2023-05-25T20:53:45.509Z,21.49
2023-05-25T20:56:34.290Z,21.46
2023-05-25T20:59:23.622Z,21.49
2023-05-25T21:02:12.284Z,21.55
2023-05-25T21:05:01.118Z,21.57
2023-05-25T21:07:51.081Z,21.59
2023-05-25T21:10:39.624Z,21.65
2023-05-25T21:13:28.152Z,21.68
2023-05-25T21:16:16.733Z,21.58
2023-05-25T21:19:05.758Z,21.57
2023-05-25T21:21:54.236Z,21.55
2023-05-25T21:24:42.864Z,21.63
2023-05-25T21:27:31.429Z,21.66
2023-05-25T21:30:21.063Z,21.59
2023-05-25T21:33:09.673Z,21.54
2023-05-25T21:35:58.364Z,21.61
2023-05-25T21:38:47.102Z,21.60
2023-05-25T21:41:35.730Z,21.57
2023-05-25T21:44:24.342Z,21.54
2023-05-25T21:47:13.100Z,21.51
2023-05-25T21:50:01.852Z,21.51
2023-05-25T21:52:50.520Z,21.56
2023-05-25T21:55:39.059Z,21.58
2023-05-25T21:58:27.616Z,21.40
2023-05-25T22:01:16.383Z,20.79
2023-05-25T22:04:05.064Z,20.55
2023-05-25T22:06:54.259Z,20.40
2023-05-25T22:09:42.852Z,20.49
2023-05-25T22:12:31.381Z,20.77
2023-05-25T22:15:20.001Z,20.69
2023-05-25T22:18:08.702Z,20.62
2023-05-25T22:20:57.488Z,20.68
2023-05-25T22:23:46.067Z,20.72
2023-05-25T22:26:34.785Z,20.67
2023-05-25T22:29:23.385Z,20.57
2023-05-25T22:32:11.964Z,20.59
2023-05-25T22:35:01.286Z,20.67
2023-05-25T22:37:49.984Z,20.72
2023-05-25T22:40:38.743Z,20.81
2023-05-25T22:43:27.406Z,20.96
2023-05-25T22:46:15.981Z,21.05
2023-05-25T22:49:04.557Z,21.01
2023-05-25T22:51:53.135Z,21.13
2023-05-25T22:54:41.795Z,21.17
2023-05-25T22:57:30.278Z,21.13
2023-05-25T23:00:19.063Z,21.20
2023-05-25T23:03:07.755Z,21.20
2023-05-25T23:05:56.546Z,21.16
2023-05-25T23:08:46.630Z,21.14
2023-05-25T23:11:35.204Z,21.11
2023-05-25T23:14:23.765Z,20.95
2023-05-25T23:17:12.501Z,20.81
2023-05-25T23:20:02.180Z,20.79
2023-05-25T23:22:51.060Z,20.86
2023-05-25T23:25:39.635Z,20.87
2023-05-25T23:28:28.619Z,20.86
2023-05-25T23:31:17.294Z,20.84
2023-05-25T23:34:06.048Z,20.82
2023-05-25T23:36:54.653Z,20.81
2023-05-25T23:39:43.424Z,20.74
2023-05-25T23:42:39.130Z,20.75
2023-05-25T23:45:27.941Z,20.68
2023-05-25T23:48:16.647Z,20.48
2023-05-25T23:51:07.621Z,20.54
2023-05-25T23:53:56.219Z,20.51
2023-05-25T23:56:44.803Z,20.55
2023-05-25T23:59:33.326Z,20.53
